Parkhill, Canada
Current Conditions -  °F | °C
As of 2:28 PM on Monday 20 Oct 2014 (Local Time) from CYXU Reporting Station
Rain Showers Rain Showers  
Wind Chill: 54°   Ceiling: 1500
Heat Index: 54°   Visibility: 10mi
Dew Point: 48°   Wind: 9mph
Humidity: 82%   Direction: 220°SW
Pressure: 29.79"   Gusts: NA
Location:  43.17°N, 81.68°W
Report Text: CYXU 201828Z 22008KT 10SM -SHRA BKN015 OVC080 12/09 A2979 RMK SF5AC3 CIG RAG SLP091
Loading
Personal Weather Stations






























Interactive Weather Map
Tropical Storm Tracking
New forecast layout! Learn more

10-Day Weather Forecast

Advertisements
Track Severe Weather on mobile